Für Piloten

Informationen für Piloten zum Flugplatz Borken-Hoxfeld
Hier findest Du alle relevanten Informationen, die Du als Pilot benötigst, um Borken-Hoxfeld anzufliegen.

Flugplatz: Borken-Hoxfeld ICAO-Code: EDLY
Borken-Hoxfeld Info: 122,930 Mhz
GAFOR Gebiet: 32
Platzrunde: Motorflug; -> Südplatzrunde; Segelflug; -> Nordplatzrunde;
Landegebühr: z.Zt. 5,00 Euro
Platzhöhe: 48m üMSL
Pisten: 12/30 – 740 m x 30 m, GRAS
Betriebszeiten: PPR (in den Sommermonaten Mittagspause beachten)

 

Wetterforecast:

Available data for EDDL from the past 2 hours
DUESSELDORF
Metar
EDDL 191220Z 17010KT 9999 SCT025 BKN035 15/12 Q1004 TEMPO RA

12:20 UTC

Wind: 170° 10kt

Visibility: 9999 m

Sky: SCT 2500 ft

Temp: 15 deg C / 59 deg F

Dewpoint: 12 deg C / 53.6 deg F

Pressure: 1004 hPa

TAF
TAF EDDL 191100Z 1912/2018 16011KT 9999 BKN030 TEMPO 1913/1919 RA BECMG 1916/1919 16005KT TEMPO 2002/2008 VRB03KT TEMPO 2002/2018 RA BECMG 2008/2011 36005KT BKN012 PROB40 TEMPO 2009/2018 3500 RADZ BKN008 PROB30 TEMPO 2014/2018 BKN004

Alle obigen Informationen ersetzen nicht die vorgeschriebene, persönliche Flugvorbereitung.